sensor_id;sensor_type;location;lat;lon;timestamp;pressure;altitude;pressure_sealevel;temperature;humidity
11223;BME280;5668;52.012;8.724;2023-11-19T00:00:20;99473.88;;;10.24;100.00
11223;BME280;5668;52.012;8.724;2023-11-19T00:02:47;99464.91;;;10.28;100.00
11223;BME280;5668;52.012;8.724;2023-11-19T00:05:15;99461.91;;;10.32;100.00
11223;BME280;5668;52.012;8.724;2023-11-19T00:07:43;99453.19;;;10.33;100.00
11223;BME280;5668;52.012;8.724;2023-11-19T00:10:13;99440.06;;;10.35;100.00
11223;BME280;5668;52.012;8.724;2023-11-19T00:12:45;99443.09;;;10.40;100.00
11223;BME280;5668;52.012;8.724;2023-11-19T00:15:13;99435.91;;;10.43;100.00
11223;BME280;5668;52.012;8.724;2023-11-19T00:17:41;99437.53;;;10.44;100.00
11223;BME280;5668;52.012;8.724;2023-11-19T00:20:12;99442.34;;;10.49;100.00
11223;BME280;5668;52.012;8.724;2023-11-19T00:22:44;99444.81;;;10.51;100.00
11223;BME280;5668;52.012;8.724;2023-11-19T00:25:14;99448.91;;;10.53;100.00
11223;BME280;5668;52.012;8.724;2023-11-19T00:27:41;99445.13;;;10.57;100.00
11223;BME280;5668;52.012;8.724;2023-11-19T00:30:11;99441.47;;;10.60;100.00
11223;BME280;5668;52.012;8.724;2023-11-19T00:32:39;99439.41;;;10.63;100.00
11223;BME280;5668;52.012;8.724;2023-11-19T00:35:07;99433.13;;;10.66;100.00
11223;BME280;5668;52.012;8.724;2023-11-19T00:37:36;99430.25;;;10.69;100.00
11223;BME280;5668;52.012;8.724;2023-11-19T00:40:06;99424.00;;;10.71;100.00
11223;BME280;5668;52.012;8.724;2023-11-19T00:42:36;99438.75;;;10.71;100.00
11223;BME280;5668;52.012;8.724;2023-11-19T00:45:04;99418.09;;;10.69;100.00
11223;BME280;5668;52.012;8.724;2023-11-19T00:47:34;99417.72;;;10.74;100.00
11223;BME280;5668;52.012;8.724;2023-11-19T00:50:01;99406.81;;;10.80;100.00
11223;BME280;5668;52.012;8.724;2023-11-19T00:52:29;99394.50;;;10.82;100.00
11223;BME280;5668;52.012;8.724;2023-11-19T00:54:56;99404.63;;;10.85;100.00
11223;BME280;5668;52.012;8.724;2023-11-19T00:57:25;99399.31;;;10.86;100.00
11223;BME280;5668;52.012;8.724;2023-11-19T00:59:53;99394.81;;;10.89;100.00
11223;BME280;5668;52.012;8.724;2023-11-19T01:02:20;99402.91;;;10.95;100.00
11223;BME280;5668;52.012;8.724;2023-11-19T01:04:47;99407.13;;;10.96;100.00
11223;BME280;5668;52.012;8.724;2023-11-19T01:07:15;99393.88;;;10.99;100.00
11223;BME280;5668;52.012;8.724;2023-11-19T01:09:42;99395.38;;;11.02;100.00
11223;BME280;5668;52.012;8.724;2023-11-19T01:12:09;99383.22;;;11.02;100.00
11223;BME280;5668;52.012;8.724;2023-11-19T01:14:38;99391.72;;;11.04;100.00
11223;BME280;5668;52.012;8.724;2023-11-19T01:17:06;99394.03;;;11.07;100.00
11223;BME280;5668;52.012;8.724;2023-11-19T01:19:35;99388.69;;;11.09;100.00
11223;BME280;5668;52.012;8.724;2023-11-19T01:22:02;99397.75;;;11.14;100.00
11223;BME280;5668;52.012;8.724;2023-11-19T01:24:29;99399.13;;;11.18;100.00
11223;BME280;5668;52.012;8.724;2023-11-19T01:26:57;99389.13;;;11.23;100.00
11223;BME280;5668;52.012;8.724;2023-11-19T01:29:26;99385.34;;;11.28;100.00
11223;BME280;5668;52.012;8.724;2023-11-19T01:31:54;99382.97;;;11.24;100.00
11223;BME280;5668;52.012;8.724;2023-11-19T01:34:22;99386.13;;;11.28;100.00
11223;BME280;5668;52.012;8.724;2023-11-19T01:36:49;99374.94;;;11.28;100.00
11223;BME280;5668;52.012;8.724;2023-11-19T01:39:16;99376.41;;;11.30;100.00
11223;BME280;5668;52.012;8.724;2023-11-19T01:41:45;99369.44;;;11.31;100.00
11223;BME280;5668;52.012;8.724;2023-11-19T01:44:13;99363.28;;;11.32;100.00
11223;BME280;5668;52.012;8.724;2023-11-19T01:46:41;99351.09;;;11.32;100.00
11223;BME280;5668;52.012;8.724;2023-11-19T01:49:10;99347.81;;;11.40;100.00
11223;BME280;5668;52.012;8.724;2023-11-19T01:51:38;99347.69;;;11.41;100.00
11223;BME280;5668;52.012;8.724;2023-11-19T01:54:07;99339.06;;;11.41;100.00
11223;BME280;5668;52.012;8.724;2023-11-19T01:56:35;99349.06;;;11.45;100.00
11223;BME280;5668;52.012;8.724;2023-11-19T01:59:04;99352.72;;;11.43;100.00
11223;BME280;5668;52.012;8.724;2023-11-19T02:01:32;99337.56;;;11.48;100.00
11223;BME280;5668;52.012;8.724;2023-11-19T02:04:02;99333.72;;;11.52;100.00
11223;BME280;5668;52.012;8.724;2023-11-19T02:06:32;99317.00;;;11.54;100.00
11223;BME280;5668;52.012;8.724;2023-11-19T02:09:00;99316.19;;;11.54;100.00
11223;BME280;5668;52.012;8.724;2023-11-19T02:11:28;99307.56;;;11.53;100.00
11223;BME280;5668;52.012;8.724;2023-11-19T02:13:56;99300.56;;;11.54;100.00
11223;BME280;5668;52.012;8.724;2023-11-19T02:16:24;99300.31;;;11.57;100.00
11223;BME280;5668;52.012;8.724;2023-11-19T02:18:51;99299.06;;;11.61;100.00
11223;BME280;5668;52.012;8.724;2023-11-19T02:21:18;99297.84;;;11.65;100.00
11223;BME280;5668;52.012;8.724;2023-11-19T02:23:47;99292.63;;;11.65;100.00
11223;BME280;5668;52.012;8.724;2023-11-19T02:26:18;99289.59;;;11.70;100.00
11223;BME280;5668;52.012;8.724;2023-11-19T02:28:51;99289.22;;;11.74;100.00
11223;BME280;5668;52.012;8.724;2023-11-19T02:31:18;99294.97;;;11.78;100.00
11223;BME280;5668;52.012;8.724;2023-11-19T02:33:46;99284.69;;;11.76;100.00
11223;BME280;5668;52.012;8.724;2023-11-19T02:36:13;99295.66;;;11.80;100.00
11223;BME280;5668;52.012;8.724;2023-11-19T02:38:40;99282.47;;;11.81;100.00
11223;BME280;5668;52.012;8.724;2023-11-19T02:41:08;99282.34;;;11.83;100.00
11223;BME280;5668;52.012;8.724;2023-11-19T02:43:37;99277.81;;;11.85;100.00
11223;BME280;5668;52.012;8.724;2023-11-19T02:46:06;99276.03;;;11.85;100.00
11223;BME280;5668;52.012;8.724;2023-11-19T02:48:34;99282.59;;;11.89;100.00
11223;BME280;5668;52.012;8.724;2023-11-19T02:51:02;99284.38;;;11.98;100.00
11223;BME280;5668;52.012;8.724;2023-11-19T02:53:30;99270.91;;;12.03;100.00
11223;BME280;5668;52.012;8.724;2023-11-19T02:55:58;99273.50;;;12.03;100.00
11223;BME280;5668;52.012;8.724;2023-11-19T02:58:32;99269.00;;;12.05;100.00
11223;BME280;5668;52.012;8.724;2023-11-19T03:01:00;99272.28;;;12.07;100.00
11223;BME280;5668;52.012;8.724;2023-11-19T03:03:39;99271.03;;;12.11;100.00
11223;BME280;5668;52.012;8.724;2023-11-19T03:06:07;99261.44;;;12.12;100.00
11223;BME280;5668;52.012;8.724;2023-11-19T03:08:36;99264.72;;;12.14;100.00
11223;BME280;5668;52.012;8.724;2023-11-19T03:11:03;99267.88;;;12.17;100.00
11223;BME280;5668;52.012;8.724;2023-11-19T03:13:31;99271.94;;;12.20;100.00
11223;BME280;5668;52.012;8.724;2023-11-19T03:15:58;99270.72;;;12.24;100.00
11223;BME280;5668;52.012;8.724;2023-11-19T03:18:26;99256.06;;;12.23;100.00
11223;BME280;5668;52.012;8.724;2023-11-19T03:20:55;99256.56;;;12.26;100.00
11223;BME280;5668;52.012;8.724;2023-11-19T03:23:24;99249.97;;;12.32;100.00
11223;BME280;5668;52.012;8.724;2023-11-19T03:25:54;99242.81;;;12.34;100.00
11223;BME280;5668;52.012;8.724;2023-11-19T03:28:21;99244.47;;;12.35;100.00
11223;BME280;5668;52.012;8.724;2023-11-19T03:30:48;99243.50;;;12.36;100.00
11223;BME280;5668;52.012;8.724;2023-11-19T03:33:15;99234.03;;;12.35;100.00
11223;BME280;5668;52.012;8.724;2023-11-19T03:35:43;99242.53;;;12.37;100.00
11223;BME280;5668;52.012;8.724;2023-11-19T03:38:11;99233.47;;;12.41;100.00
11223;BME280;5668;52.012;8.724;2023-11-19T03:40:39;99228.09;;;12.43;100.00
11223;BME280;5668;52.012;8.724;2023-11-19T03:43:06;99223.72;;;12.43;100.00
11223;BME280;5668;52.012;8.724;2023-11-19T03:45:35;99236.59;;;12.45;100.00
11223;BME280;5668;52.012;8.724;2023-11-19T03:48:03;99237.13;;;12.48;100.00
11223;BME280;5668;52.012;8.724;2023-11-19T03:50:31;99233.28;;;12.52;100.00
11223;BME280;5668;52.012;8.724;2023-11-19T03:52:58;99232.31;;;12.53;100.00
11223;BME280;5668;52.012;8.724;2023-11-19T03:55:27;99235.59;;;12.55;100.00
11223;BME280;5668;52.012;8.724;2023-11-19T03:57:54;99232.00;;;12.56;100.00
11223;BME280;5668;52.012;8.724;2023-11-19T04:00:22;99240.50;;;12.58;100.00
11223;BME280;5668;52.012;8.724;2023-11-19T04:02:49;99242.97;;;12.60;100.00
11223;BME280;5668;52.012;8.724;2023-11-19T04:05:17;99251.16;;;12.65;100.00
11223;BME280;5668;52.012;8.724;2023-11-19T04:07:45;99245.81;;;12.66;100.00
11223;BME280;5668;52.012;8.724;2023-11-19T04:10:12;99249.78;;;12.70;100.00
11223;BME280;5668;52.012;8.724;2023-11-19T04:12:43;99250.44;;;12.72;100.00
11223;BME280;5668;52.012;8.724;2023-11-19T04:15:11;99253.56;;;12.76;100.00
11223;BME280;5668;52.012;8.724;2023-11-19T04:17:39;99257.00;;;12.76;100.00
11223;BME280;5668;52.012;8.724;2023-11-19T04:20:07;99256.84;;;12.78;100.00
11223;BME280;5668;52.012;8.724;2023-11-19T04:22:37;99251.19;;;12.83;100.00
11223;BME280;5668;52.012;8.724;2023-11-19T04:25:05;99249.91;;;12.87;100.00
11223;BME280;5668;52.012;8.724;2023-11-19T04:27:32;99246.34;;;12.88;100.00
11223;BME280;5668;52.012;8.724;2023-11-19T04:30:01;99244.13;;;12.93;100.00
11223;BME280;5668;52.012;8.724;2023-11-19T04:32:29;99233.38;;;12.96;100.00
11223;BME280;5668;52.012;8.724;2023-11-19T04:34:56;99228.31;;;12.94;100.00
11223;BME280;5668;52.012;8.724;2023-11-19T04:37:24;99228.03;;;12.97;100.00
11223;BME280;5668;52.012;8.724;2023-11-19T04:39:51;99239.66;;;13.03;100.00
11223;BME280;5668;52.012;8.724;2023-11-19T04:42:18;99232.50;;;13.05;100.00
11223;BME280;5668;52.012;8.724;2023-11-19T04:44:46;99235.78;;;13.07;100.00
11223;BME280;5668;52.012;8.724;2023-11-19T04:47:14;99232.22;;;13.08;100.00
11223;BME280;5668;52.012;8.724;2023-11-19T04:49:42;99235.94;;;13.05;100.00
11223;BME280;5668;52.012;8.724;2023-11-19T04:52:09;99236.75;;;13.06;100.00
11223;BME280;5668;52.012;8.724;2023-11-19T04:54:41;99216.56;;;13.08;100.00
11223;BME280;5668;52.012;8.724;2023-11-19T04:57:09;99225.34;;;13.07;100.00
11223;BME280;5668;52.012;8.724;2023-11-19T04:59:37;99215.56;;;13.09;100.00
11223;BME280;5668;52.012;8.724;2023-11-19T05:02:04;99214.25;;;13.05;100.00
11223;BME280;5668;52.012;8.724;2023-11-19T05:04:33;99201.19;;;13.05;100.00
11223;BME280;5668;52.012;8.724;2023-11-19T05:07:01;99203.81;;;13.05;100.00
11223;BME280;5668;52.012;8.724;2023-11-19T05:09:28;99201.19;;;13.05;100.00
11223;BME280;5668;52.012;8.724;2023-11-19T05:11:56;99206.41;;;13.05;100.00
11223;BME280;5668;52.012;8.724;2023-11-19T05:14:23;99204.50;;;13.07;100.00
11223;BME280;5668;52.012;8.724;2023-11-19T05:16:51;99207.91;;;13.07;100.00
11223;BME280;5668;52.012;8.724;2023-11-19T05:19:18;99218.63;;;13.04;100.00
11223;BME280;5668;52.012;8.724;2023-11-19T05:21:47;99226.59;;;13.03;100.00
11223;BME280;5668;52.012;8.724;2023-11-19T05:24:17;99234.97;;;13.06;100.00
11223;BME280;5668;52.012;8.724;2023-11-19T05:26:44;99240.47;;;13.03;100.00
11223;BME280;5668;52.012;8.724;2023-11-19T05:29:13;99251.34;;;12.99;100.00
11223;BME280;5668;52.012;8.724;2023-11-19T05:31:40;99238.59;;;12.96;100.00
11223;BME280;5668;52.012;8.724;2023-11-19T05:34:07;99242.03;;;12.96;100.00
11223;BME280;5668;52.012;8.724;2023-11-19T05:36:35;99247.38;;;12.95;100.00
11223;BME280;5668;52.012;8.724;2023-11-19T05:39:03;99240.94;;;12.99;100.00
11223;BME280;5668;52.012;8.724;2023-11-19T05:41:30;99242.19;;;12.95;100.00
11223;BME280;5668;52.012;8.724;2023-11-19T05:43:58;99244.41;;;12.90;100.00
11223;BME280;5668;52.012;8.724;2023-11-19T05:46:25;99241.13;;;12.88;100.00
11223;BME280;5668;52.012;8.724;2023-11-19T05:48:53;99243.38;;;12.83;100.00
11223;BME280;5668;52.012;8.724;2023-11-19T05:51:20;99247.16;;;12.88;100.00
11223;BME280;5668;52.012;8.724;2023-11-19T05:53:49;99237.06;;;12.85;100.00
11223;BME280;5668;52.012;8.724;2023-11-19T05:56:18;99241.44;;;12.85;100.00
11223;BME280;5668;52.012;8.724;2023-11-19T05:58:47;99243.06;;;12.86;100.00
11223;BME280;5668;52.012;8.724;2023-11-19T06:01:15;99236.22;;;12.85;100.00
11223;BME280;5668;52.012;8.724;2023-11-19T06:03:42;99244.06;;;12.85;100.00
11223;BME280;5668;52.012;8.724;2023-11-19T06:06:13;99245.19;;;13.00;100.00
11223;BME280;5668;52.012;8.724;2023-11-19T06:08:40;99248.91;;;12.97;100.00
11223;BME280;5668;52.012;8.724;2023-11-19T06:11:09;99252.31;;;12.98;100.00
11223;BME280;5668;52.012;8.724;2023-11-19T06:13:42;99247.94;;;12.98;100.00
11223;BME280;5668;52.012;8.724;2023-11-19T06:16:09;99252.19;;;12.99;100.00
11223;BME280;5668;52.012;8.724;2023-11-19T06:18:37;99249.72;;;12.98;100.00
11223;BME280;5668;52.012;8.724;2023-11-19T06:21:05;99244.34;;;12.99;100.00
11223;BME280;5668;52.012;8.724;2023-11-19T06:23:32;99255.91;;;12.97;100.00
11223;BME280;5668;52.012;8.724;2023-11-19T06:25:59;99266.78;;;12.92;100.00
11223;BME280;5668;52.012;8.724;2023-11-19T06:28:27;99266.25;;;12.89;100.00
11223;BME280;5668;52.012;8.724;2023-11-19T06:30:55;99265.34;;;12.80;100.00
11223;BME280;5668;52.012;8.724;2023-11-19T06:33:24;99266.88;;;12.73;100.00
11223;BME280;5668;52.012;8.724;2023-11-19T06:35:53;99261.53;;;12.74;100.00
11223;BME280;5668;52.012;8.724;2023-11-19T06:38:20;99270.88;;;12.77;100.00
11223;BME280;5668;52.012;8.724;2023-11-19T06:40:47;99269.72;;;12.79;100.00
11223;BME280;5668;52.012;8.724;2023-11-19T06:43:15;99272.34;;;12.79;100.00
11223;BME280;5668;52.012;8.724;2023-11-19T06:45:42;99275.63;;;12.82;100.00
11223;BME280;5668;52.012;8.724;2023-11-19T06:48:11;99275.53;;;12.73;100.00
11223;BME280;5668;52.012;8.724;2023-11-19T06:50:38;99275.53;;;12.73;100.00
11223;BME280;5668;52.012;8.724;2023-11-19T06:53:05;99281.56;;;12.74;100.00
11223;BME280;5668;52.012;8.724;2023-11-19T06:55:36;99285.59;;;12.68;100.00
11223;BME280;5668;52.012;8.724;2023-11-19T06:58:05;99282.03;;;12.69;100.00
11223;BME280;5668;52.012;8.724;2023-11-19T07:00:33;99287.88;;;12.71;100.00
11223;BME280;5668;52.012;8.724;2023-11-19T07:03:02;99287.88;;;12.71;100.00
11223;BME280;5668;52.012;8.724;2023-11-19T07:05:30;99292.72;;;12.66;100.00
11223;BME280;5668;52.012;8.724;2023-11-19T07:07:57;99291.22;;;12.64;100.00
11223;BME280;5668;52.012;8.724;2023-11-19T07:10:25;99287.66;;;12.65;100.00
11223;BME280;5668;52.012;8.724;2023-11-19T07:12:52;99291.38;;;12.62;100.00
11223;BME280;5668;52.012;8.724;2023-11-19T07:15:20;99291.53;;;12.61;100.00
11223;BME280;5668;52.012;8.724;2023-11-19T07:17:47;99306.34;;;12.60;100.00
11223;BME280;5668;52.012;8.724;2023-11-19T07:20:15;99298.81;;;12.57;100.00
11223;BME280;5668;52.012;8.724;2023-11-19T07:22:45;99303.38;;;12.55;100.00
11223;BME280;5668;52.012;8.724;2023-11-19T07:25:13;99310.59;;;12.61;100.00
11223;BME280;5668;52.012;8.724;2023-11-19T07:27:40;99304.41;;;12.62;100.00
11223;BME280;5668;52.012;8.724;2023-11-19T07:30:09;99308.94;;;12.60;100.00
11223;BME280;5668;52.012;8.724;2023-11-19T07:32:36;99314.84;;;12.62;100.00
11223;BME280;5668;52.012;8.724;2023-11-19T07:35:05;99306.03;;;12.63;100.00
11223;BME280;5668;52.012;8.724;2023-11-19T07:37:33;99316.47;;;12.63;100.00
11223;BME280;5668;52.012;8.724;2023-11-19T07:40:02;99315.00;;;12.61;100.00
11223;BME280;5668;52.012;8.724;2023-11-19T07:42:30;99311.69;;;12.59;100.00
11223;BME280;5668;52.012;8.724;2023-11-19T07:44:58;99323.31;;;12.64;100.00
11223;BME280;5668;52.012;8.724;2023-11-19T07:47:25;99326.13;;;12.53;100.00
11223;BME280;5668;52.012;8.724;2023-11-19T07:49:54;99324.22;;;12.55;100.00
11223;BME280;5668;52.012;8.724;2023-11-19T07:52:21;99319.97;;;12.54;100.00
11223;BME280;5668;52.012;8.724;2023-11-19T07:54:49;99327.59;;;12.56;100.00
11223;BME280;5668;52.012;8.724;2023-11-19T07:57:17;99330.22;;;12.56;100.00
11223;BME280;5668;52.012;8.724;2023-11-19T07:59:45;99339.84;;;12.55;100.00
11223;BME280;5668;52.012;8.724;2023-11-19T08:02:12;99328.28;;;12.58;100.00
11223;BME280;5668;52.012;8.724;2023-11-19T08:04:40;99335.97;;;12.59;100.00
11223;BME280;5668;52.012;8.724;2023-11-19T08:07:10;99335.53;;;12.64;100.00
11223;BME280;5668;52.012;8.724;2023-11-19T08:09:38;99332.78;;;12.65;100.00
11223;BME280;5668;52.012;8.724;2023-11-19T08:12:06;99338.69;;;12.67;100.00
11223;BME280;5668;52.012;8.724;2023-11-19T08:14:36;99343.22;;;12.65;100.00
11223;BME280;5668;52.012;8.724;2023-11-19T08:17:03;99344.41;;;12.71;100.00
11223;BME280;5668;52.012;8.724;2023-11-19T08:19:31;99339.78;;;12.65;100.00
11223;BME280;5668;52.012;8.724;2023-11-19T08:21:58;99346.50;;;12.67;100.00
11223;BME280;5668;52.012;8.724;2023-11-19T08:24:25;99357.63;;;12.69;100.00
11223;BME280;5668;52.012;8.724;2023-11-19T08:26:53;99358.13;;;12.73;100.00
11223;BME280;5668;52.012;8.724;2023-11-19T08:29:20;99357.63;;;12.69;100.00
11223;BME280;5668;52.012;8.724;2023-11-19T08:31:49;99374.63;;;12.64;100.00
11223;BME280;5668;52.012;8.724;2023-11-19T08:34:16;99373.81;;;12.63;100.00
11223;BME280;5668;52.012;8.724;2023-11-19T08:36:43;99365.44;;;12.69;100.00
11223;BME280;5668;52.012;8.724;2023-11-19T08:39:11;99351.97;;;12.74;100.00
11223;BME280;5668;52.012;8.724;2023-11-19T08:41:39;99361.44;;;12.75;100.00
11223;BME280;5668;52.012;8.724;2023-11-19T08:44:07;99360.31;;;12.77;100.00
11223;BME280;5668;52.012;8.724;2023-11-19T08:46:35;99355.50;;;12.83;100.00
11223;BME280;5668;52.012;8.724;2023-11-19T08:49:03;99362.34;;;12.84;100.00
11223;BME280;5668;52.012;8.724;2023-11-19T08:51:31;99364.66;;;12.87;100.00
11223;BME280;5668;52.012;8.724;2023-11-19T08:53:59;99358.47;;;12.88;100.00
11223;BME280;5668;52.012;8.724;2023-11-19T08:56:26;99365.19;;;12.90;100.00
11223;BME280;5668;52.012;8.724;2023-11-19T08:58:58;99367.66;;;12.92;100.00
11223;BME280;5668;52.012;8.724;2023-11-19T09:01:25;99354.31;;;12.95;100.00
11223;BME280;5668;52.012;8.724;2023-11-19T09:03:52;99370.09;;;12.93;100.00
11223;BME280;5668;52.012;8.724;2023-11-19T09:06:21;99380.69;;;12.92;100.00
11223;BME280;5668;52.012;8.724;2023-11-19T09:08:48;99380.03;;;12.90;100.00
11223;BME280;5668;52.012;8.724;2023-11-19T09:11:17;99380.28;;;12.87;100.00
11223;BME280;5668;52.012;8.724;2023-11-19T09:13:44;99382.38;;;12.83;100.00
11223;BME280;5668;52.012;8.724;2023-11-19T09:16:12;99389.00;;;12.77;100.00
11223;BME280;5668;52.012;8.724;2023-11-19T09:18:39;99379.00;;;12.73;100.00
11223;BME280;5668;52.012;8.724;2023-11-19T09:21:06;99374.31;;;12.76;100.00
11223;BME280;5668;52.012;8.724;2023-11-19T09:23:35;99373.75;;;12.83;100.00
11223;BME280;5668;52.012;8.724;2023-11-19T09:26:05;99374.81;;;12.90;100.00
11223;BME280;5668;52.012;8.724;2023-11-19T09:28:32;99389.50;;;12.91;100.00
11223;BME280;5668;52.012;8.724;2023-11-19T09:31:00;99392.63;;;12.94;100.00
11223;BME280;5668;52.012;8.724;2023-11-19T09:33:30;99392.06;;;13.00;100.00
11223;BME280;5668;52.012;8.724;2023-11-19T09:35:57;99391.22;;;13.00;100.00
11223;BME280;5668;52.012;8.724;2023-11-19T09:38:25;99393.66;;;13.01;100.00
11223;BME280;5668;52.012;8.724;2023-11-19T09:40:53;99400.53;;;13.02;100.00
11223;BME280;5668;52.012;8.724;2023-11-19T09:43:21;99392.84;;;13.01;100.00
11223;BME280;5668;52.012;8.724;2023-11-19T09:45:50;99393.97;;;12.98;100.00
11223;BME280;5668;52.012;8.724;2023-11-19T09:48:18;99399.19;;;12.98;100.00
11223;BME280;5668;52.012;8.724;2023-11-19T09:50:47;99398.66;;;12.95;100.00
11223;BME280;5668;52.012;8.724;2023-11-19T09:53:15;99402.53;;;12.91;100.00
11223;BME280;5668;52.012;8.724;2023-11-19T09:55:43;99400.59;;;12.93;100.00
11223;BME280;5668;52.012;8.724;2023-11-19T09:58:14;99404.09;;;13.01;100.00
11223;BME280;5668;52.012;8.724;2023-11-19T10:00:42;99404.66;;;13.05;100.00
11223;BME280;5668;52.012;8.724;2023-11-19T10:03:11;99400.78;;;13.09;100.00
11223;BME280;5668;52.012;8.724;2023-11-19T10:05:39;99398.59;;;13.04;100.00
11223;BME280;5668;52.012;8.724;2023-11-19T10:08:07;99398.47;;;13.06;100.00
11223;BME280;5668;52.012;8.724;2023-11-19T10:10:35;99396.69;;;13.06;100.00
11223;BME280;5668;52.012;8.724;2023-11-19T10:13:03;99396.38;;;13.09;100.00
11223;BME280;5668;52.012;8.724;2023-11-19T10:15:36;99384.97;;;13.10;100.00
11223;BME280;5668;52.012;8.724;2023-11-19T10:18:04;99388.16;;;13.14;100.00
11223;BME280;5668;52.012;8.724;2023-11-19T10:20:36;99387.25;;;13.23;100.00
11223;BME280;5668;52.012;8.724;2023-11-19T10:23:04;99378.19;;;13.27;100.00
11223;BME280;5668;52.012;8.724;2023-11-19T10:25:31;99380.66;;;13.29;100.00
11223;BME280;5668;52.012;8.724;2023-11-19T10:27:59;99378.88;;;13.29;100.00
11223;BME280;5668;52.012;8.724;2023-11-19T10:30:28;99386.69;;;13.29;99.59
11223;BME280;5668;52.012;8.724;2023-11-19T10:33:07;99388.63;;;13.27;99.87
11223;BME280;5668;52.012;8.724;2023-11-19T10:35:36;99382.72;;;13.25;99.93
11223;BME280;5668;52.012;8.724;2023-11-19T10:38:17;99374.03;;;13.34;99.55
11223;BME280;5668;52.012;8.724;2023-11-19T10:40:45;99380.66;;;13.46;99.58
11223;BME280;5668;52.012;8.724;2023-11-19T10:43:13;99379.91;;;13.54;99.07
11223;BME280;5668;52.012;8.724;2023-11-19T10:45:40;99372.16;;;13.62;98.30
11223;BME280;5668;52.012;8.724;2023-11-19T10:48:09;99380.00;;;13.62;97.50
11223;BME280;5668;52.012;8.724;2023-11-19T10:50:39;99379.16;;;13.62;96.92
11223;BME280;5668;52.012;8.724;2023-11-19T10:53:08;99377.84;;;13.57;96.71
11223;BME280;5668;52.012;8.724;2023-11-19T10:55:36;99382.38;;;13.55;96.79
11223;BME280;5668;52.012;8.724;2023-11-19T10:58:05;99378.28;;;13.53;96.88
11223;BME280;5668;52.012;8.724;2023-11-19T11:00:38;99373.28;;;13.60;97.20
11223;BME280;5668;52.012;8.724;2023-11-19T11:03:15;99375.97;;;13.68;97.20
11223;BME280;5668;52.012;8.724;2023-11-19T11:05:43;99370.75;;;13.68;97.05
11223;BME280;5668;52.012;8.724;2023-11-19T11:08:13;99369.13;;;13.67;96.53
11223;BME280;5668;52.012;8.724;2023-11-19T11:10:44;99368.59;;;13.63;96.54
11223;BME280;5668;52.012;8.724;2023-11-19T11:13:14;99364.84;;;13.66;96.01
11223;BME280;5668;52.012;8.724;2023-11-19T11:15:41;99370.09;;;13.66;95.71
11223;BME280;5668;52.012;8.724;2023-11-19T11:18:09;99359.94;;;13.63;95.22
11223;BME280;5668;52.012;8.724;2023-11-19T11:20:38;99364.19;;;13.64;94.97
11223;BME280;5668;52.012;8.724;2023-11-19T11:23:33;99347.69;;;13.63;94.65
11223;BME280;5668;52.012;8.724;2023-11-19T11:26:30;99352.56;;;13.58;94.75
11223;BME280;5668;52.012;8.724;2023-11-19T11:29:04;99368.66;;;13.53;95.61
11223;BME280;5668;52.012;8.724;2023-11-19T11:31:39;99367.31;;;13.49;96.63
11223;BME280;5668;52.012;8.724;2023-11-19T11:37:25;99350.06;;;13.39;98.86
11223;BME280;5668;52.012;8.724;2023-11-19T11:39:53;99349.13;;;13.40;99.83
11223;BME280;5668;52.012;8.724;2023-11-19T11:42:36;99356.13;;;13.39;100.00
11223;BME280;5668;52.012;8.724;2023-11-19T11:45:05;99345.47;;;13.33;100.00
11223;BME280;5668;52.012;8.724;2023-11-19T11:50:54;99344.56;;;13.24;100.00
11223;BME280;5668;52.012;8.724;2023-11-19T11:53:26;99346.19;;;13.25;100.00
11223;BME280;5668;52.012;8.724;2023-11-19T11:55:58;99339.06;;;13.27;100.00
11223;BME280;5668;52.012;8.724;2023-11-19T11:58:34;99341.28;;;13.22;100.00
11223;BME280;5668;52.012;8.724;2023-11-19T12:01:03;99343.22;;;13.20;100.00
11223;BME280;5668;52.012;8.724;2023-11-19T12:03:33;99346.13;;;13.17;100.00
11223;BME280;5668;52.012;8.724;2023-11-19T12:06:00;99356.03;;;13.13;100.00
11223;BME280;5668;52.012;8.724;2023-11-19T12:08:31;99360.44;;;13.13;100.00
11223;BME280;5668;52.012;8.724;2023-11-19T12:11:01;99350.25;;;13.10;100.00
11223;BME280;5668;52.012;8.724;2023-11-19T12:13:53;99347.94;;;13.07;100.00
11223;BME280;5668;52.012;8.724;2023-11-19T12:16:24;99331.72;;;13.13;100.00
11223;BME280;5668;52.012;8.724;2023-11-19T12:18:53;99338.59;;;13.14;100.00
11223;BME280;5668;52.012;8.724;2023-11-19T12:21:30;99336.00;;;13.14;100.00
11223;BME280;5668;52.012;8.724;2023-11-19T12:24:00;99334.72;;;13.18;100.00
11223;BME280;5668;52.012;8.724;2023-11-19T12:26:37;99331.69;;;13.23;100.00
11223;BME280;5668;52.012;8.724;2023-11-19T12:29:05;99331.06;;;13.29;100.00
11223;BME280;5668;52.012;8.724;2023-11-19T12:31:33;99332.56;;;13.31;100.00
11223;BME280;5668;52.012;8.724;2023-11-19T12:34:10;99334.72;;;13.36;100.00
11223;BME280;5668;52.012;8.724;2023-11-19T12:36:39;99329.38;;;13.37;100.00
11223;BME280;5668;52.012;8.724;2023-11-19T12:39:09;99330.03;;;13.39;100.00
11223;BME280;5668;52.012;8.724;2023-11-19T12:41:54;99329.06;;;13.40;100.00
11223;BME280;5668;52.012;8.724;2023-11-19T12:44:22;99329.72;;;13.42;100.00
11223;BME280;5668;52.012;8.724;2023-11-19T12:47:03;99314.38;;;13.39;100.00
11223;BME280;5668;52.012;8.724;2023-11-19T12:49:32;99311.59;;;13.41;100.00
11223;BME280;5668;52.012;8.724;2023-11-19T12:51:59;99309.97;;;13.40;100.00
11223;BME280;5668;52.012;8.724;2023-11-19T12:54:35;99306.94;;;13.44;100.00
11223;BME280;5668;52.012;8.724;2023-11-19T12:57:03;99304.13;;;13.46;100.00
11223;BME280;5668;52.012;8.724;2023-11-19T12:59:31;99309.53;;;13.44;100.00
11223;BME280;5668;52.012;8.724;2023-11-19T13:01:58;99297.81;;;13.48;100.00
11223;BME280;5668;52.012;8.724;2023-11-19T13:04:29;99289.00;;;13.49;99.50
11223;BME280;5668;52.012;8.724;2023-11-19T13:06:57;99303.72;;;13.50;99.59
11223;BME280;5668;52.012;8.724;2023-11-19T13:09:25;99304.66;;;13.49;99.30
11223;BME280;5668;52.012;8.724;2023-11-19T13:11:55;99300.06;;;13.43;98.69
11223;BME280;5668;52.012;8.724;2023-11-19T13:14:23;99296.47;;;13.44;98.95
11223;BME280;5668;52.012;8.724;2023-11-19T13:16:50;99296.69;;;13.51;98.77